»·PEaware :: N571PN KIFP-KSNA

N571PN :: KIFP-KSNA

FLIGHT INFORMATION

Flight Status: Arrived
Operator: Privately registered:
United States
More flights under this callsign
Pilot: Sanjiv S. (4490)
Aircraft: PIPER PA-28R-201 ARROW
(P28R)
More flights by this aircraft type
Origin: KIFP Laughlin/Bullhead Intl
United States
Destination: KSNA John Wayne-Orange Co
United States
More flights between these airports :: More routes between these airports
Route: +EED V12 HEC PDZ PDZ270 V363 V8 SLI
File this flight plan on PilotEdge
Remarks:
Altitude:
(Current/Filed)
10,000ft
Speed:
(Current/Filed)
140kts
Departed: 09-Oct-18 08:39 AM
Arrived: 09-Oct-18 10:33 AM
Distance/Time
Traveled:
186nm/1:54
Distance/Time
To Go:
Arrived

Flight Plot

Page will automatically refresh every two minutes.

Flight plan parsing failed; only flown route is shown


Map Options




Map Legend


Flown Route
Filed Route
Departure Airport
Arrival Airport
Navaid (VOR, NDB)
Fix

Horizontal Profiles

Position Reports

Time Latitude Longitude Heading Altitude Ground
Speed
09-Oct-18 08:22 35.159758 -114.556367 266 678ft 0kts
09-Oct-18 08:23 35.159758 -114.556367 266 678ft 0kts
09-Oct-18 08:24 35.159758 -114.556367 266 678ft 0kts
09-Oct-18 08:25 35.159758 -114.556367 266 678ft 0kts
09-Oct-18 08:26 35.159758 -114.556367 266 678ft 0kts
09-Oct-18 08:27 35.159758 -114.556367 266 678ft 0kts
09-Oct-18 08:28 35.159758 -114.556367 266 678ft 0kts
09-Oct-18 08:29 35.159758 -114.556367 266 678ft 0kts
09-Oct-18 08:30 35.159758 -114.556367 266 678ft 0kts
09-Oct-18 08:31 35.159758 -114.556367 266 678ft 0kts
09-Oct-18 08:32 35.159758 -114.556367 266 678ft 0kts
09-Oct-18 08:33 35.159758 -114.556367 266 678ft 0kts
09-Oct-18 08:34 35.159758 -114.556451 277 678ft 4kts
09-Oct-18 08:35 35.162759 -114.557461 353 659ft 8kts
09-Oct-18 08:36 35.166070 -114.558887 320 639ft 11kts
09-Oct-18 08:37 35.166200 -114.559273 272 635ft 0kts
09-Oct-18 08:38 35.166200 -114.559272 272 635ft 0kts
09-Oct-18 08:39 35.166200 -114.559272 272 635ft 0kts
09-Oct-18 08:40 35.166206 -114.559670 269 631ft 10kts
09-Oct-18 08:41 35.164031 -114.560053 175 631ft 57kts
09-Oct-18 08:42 35.142198 -114.558383 177 1506ft 83kts
09-Oct-18 08:43 35.117598 -114.556815 178 2354ft 89kts
09-Oct-18 08:44 35.092824 -114.554297 178 3129ft 91kts
09-Oct-18 08:45 35.067760 -114.552415 181 3875ft 91kts
09-Oct-18 08:46 35.042301 -114.550460 178 4579ft 92kts
09-Oct-18 08:47 35.016463 -114.548418 179 5275ft 94kts
09-Oct-18 08:48 34.990127 -114.545400 173 5945ft 96kts
09-Oct-18 08:49 34.963630 -114.537829 165 6576ft 99kts
09-Oct-18 08:50 34.936881 -114.528522 166 7175ft 101kts
09-Oct-18 08:51 34.909699 -114.519632 167 7739ft 102kts
09-Oct-18 08:52 34.898017 -114.530829 265 8055ft 90kts
09-Oct-18 08:53 34.897528 -114.560853 275 8593ft 87kts
09-Oct-18 08:54 34.897918 -114.590918 273 9068ft 90kts
09-Oct-18 08:55 34.897406 -114.619561 273 9510ft 90kts
09-Oct-18 08:56 34.896525 -114.650284 272 9970ft 93kts
09-Oct-18 08:57 34.895351 -114.681700 272 10490ft 93kts
09-Oct-18 08:58 34.894062 -114.713005 272 11021ft 93kts
09-Oct-18 08:59 34.892705 -114.744351 272 11524ft 93kts
09-Oct-18 09:00 34.891298 -114.776999 272 11890ft 104kts
09-Oct-18 09:01 34.889696 -114.814773 271 11997ft 118kts
09-Oct-18 09:02 34.887257 -114.861094 271 11996ft 117kts
09-Oct-18 09:03 34.885608 -114.893967 271 11996ft 116kts
09-Oct-18 09:04 34.883835 -114.930178 271 11996ft 116kts
09-Oct-18 09:05 34.881925 -114.968420 271 11995ft 116kts
09-Oct-18 09:06 34.879909 -115.007863 270 11996ft 117kts
09-Oct-18 09:07 34.877889 -115.047792 269 11997ft 120kts
09-Oct-18 09:08 34.875775 -115.089122 269 11997ft 126kts
09-Oct-18 09:09 34.873529 -115.132579 268 11996ft 131kts
09-Oct-18 09:10 34.871263 -115.176494 267 11996ft 133kts
09-Oct-18 09:11 34.869026 -115.221142 267 11996ft 133kts
09-Oct-18 09:12 34.866454 -115.266052 266 11996ft 133kts
09-Oct-18 09:13 34.864310 -115.311158 267 11996ft 133kts
09-Oct-18 09:14 34.861654 -115.355909 266 11996ft 134kts
09-Oct-18 09:15 34.859544 -115.401028 267 11996ft 133kts
09-Oct-18 09:16 34.856931 -115.446181 266 11997ft 133kts
09-Oct-18 09:17 34.854582 -115.491401 268 12012ft 133kts
09-Oct-18 09:18 34.852251 -115.535899 267 12027ft 133kts
09-Oct-18 09:19 34.849343 -115.580367 266 12042ft 133kts
09-Oct-18 09:20 34.847354 -115.625370 268 12058ft 133kts
09-Oct-18 09:21 34.845432 -115.661460 266 12070ft 133kts
09-Oct-18 09:22 34.843405 -115.693505 266 12079ft 133kts
09-Oct-18 09:23 34.840577 -115.737888 266 12079ft 134kts
09-Oct-18 09:24 34.837986 -115.781808 266 12079ft 134kts
09-Oct-18 09:25 34.835348 -115.827112 266 12079ft 134kts
09-Oct-18 09:26 34.832727 -115.872236 267 12079ft 134kts
09-Oct-18 09:27 34.830140 -115.917040 266 12071ft 134kts
09-Oct-18 09:28 34.827506 -115.962224 266 12060ft 134kts
09-Oct-18 09:29 34.824843 -116.007411 267 12060ft 134kts
09-Oct-18 09:30 34.821732 -116.059644 267 12060ft 134kts
09-Oct-18 09:31 34.819505 -116.097043 266 12060ft 134kts
09-Oct-18 09:32 34.816888 -116.141767 267 12060ft 134kts
09-Oct-18 09:33 34.814054 -116.186690 266 12055ft 134kts
09-Oct-18 09:34 34.811549 -116.231154 267 12043ft 134kts
09-Oct-18 09:35 34.808749 -116.275697 266 12031ft 134kts
09-Oct-18 09:36 34.806024 -116.320490 267 12019ft 134kts
09-Oct-18 09:37 34.803634 -116.362360 266 12008ft 134kts
09-Oct-18 09:38 34.800584 -116.407556 266 11997ft 134kts
09-Oct-18 09:39 34.783126 -116.444627 223 11996ft 136kts
09-Oct-18 09:40 34.756047 -116.474657 226 11996ft 136kts
09-Oct-18 09:41 34.732796 -116.509798 233 11996ft 136kts
09-Oct-18 09:42 34.710036 -116.545150 233 11997ft 136kts
09-Oct-18 09:43 34.687524 -116.580243 233 11999ft 136kts
09-Oct-18 09:44 34.668729 -116.609639 233 11999ft 136kts
09-Oct-18 09:45 34.642776 -116.650377 233 11996ft 136kts
09-Oct-18 09:46 34.640844 -116.653414 233 11997ft 136kts
09-Oct-18 09:47 34.638178 -116.657592 232 11997ft 136kts
09-Oct-18 09:48 34.620362 -116.682736 224 12006ft 135kts
09-Oct-18 09:49 34.599398 -116.708149 224 12006ft 135kts
09-Oct-18 09:50 34.571805 -116.741975 224 12006ft 135kts
09-Oct-18 09:51 34.547880 -116.771409 224 12006ft 135kts
09-Oct-18 09:52 34.527717 -116.796270 224 12006ft 135kts
09-Oct-18 09:53 34.498840 -116.831833 225 12006ft 135kts
09-Oct-18 09:54 34.478064 -116.857399 225 12006ft 135kts
09-Oct-18 09:55 34.451692 -116.889834 224 12006ft 135kts
09-Oct-18 09:56 34.425321 -116.922246 225 12006ft 135kts
09-Oct-18 09:57 34.400523 -116.952903 226 12006ft 135kts
09-Oct-18 09:58 34.374687 -116.985842 225 12006ft 135kts
09-Oct-18 09:59 34.350397 -117.015847 224 12006ft 135kts
09-Oct-18 10:00 34.324805 -117.047003 224 12006ft 135kts
09-Oct-18 10:01 34.298861 -117.078062 224 12006ft 135kts
09-Oct-18 10:02 34.272294 -117.109867 224 12006ft 135kts
09-Oct-18 10:03 34.247351 -117.139750 224 12006ft 135kts
09-Oct-18 10:04 34.222696 -117.169164 224 11877ft 138kts
09-Oct-18 10:05 34.197431 -117.199791 225 11273ft 153kts
09-Oct-18 10:06 34.169886 -117.233112 224 10569ft 151kts
09-Oct-18 10:07 34.141839 -117.266794 224 9830ft 151kts
09-Oct-18 10:08 34.113001 -117.301304 224 8837ft 159kts
09-Oct-18 10:09 34.083201 -117.336890 224 7837ft 157kts
09-Oct-18 10:10 34.055916 -117.369416 224 6986ft 155kts
09-Oct-18 10:11 34.026608 -117.404310 224 6122ft 154kts
09-Oct-18 10:12 33.999713 -117.436262 224 6019ft 129kts
09-Oct-18 10:13 33.974210 -117.465614 223 6005ft 135kts
09-Oct-18 10:14 33.948273 -117.495593 223 6004ft 136kts
09-Oct-18 10:15 33.930640 -117.529560 278 6003ft 135kts
09-Oct-18 10:16 33.932996 -117.572975 272 6005ft 136kts
09-Oct-18 10:17 33.934563 -117.617387 272 5519ft 155kts
09-Oct-18 10:18 33.938745 -117.652762 293 4754ft 164kts
09-Oct-18 10:19 33.952113 -117.694766 288 4032ft 155kts
09-Oct-18 10:20 33.963796 -117.738156 287 3999ft 138kts
09-Oct-18 10:21 33.975060 -117.780787 278 3996ft 137kts
09-Oct-18 10:22 33.947471 -117.792203 157 4000ft 137kts
09-Oct-18 10:23 33.912883 -117.784175 178 4000ft 137kts
09-Oct-18 10:24 33.883545 -117.783234 178 4000ft 137kts
09-Oct-18 10:25 33.854971 -117.789108 234 3990ft 137kts
09-Oct-18 10:26 33.842450 -117.829458 226 3992ft 137kts
09-Oct-18 10:27 33.805616 -117.843588 194 3452ft 149kts
09-Oct-18 10:28 33.769362 -117.854795 194 3003ft 114kts
09-Oct-18 10:29 33.739028 -117.864217 194 3010ft 116kts
09-Oct-18 10:30 33.708160 -117.873888 194 3009ft 117kts
09-Oct-18 10:31 33.686123 -117.892800 283 1989ft 105kts
09-Oct-18 10:32 33.706170 -117.888885 43 1027ft 95kts
09-Oct-18 10:33 33.704877 -117.865567 114 565ft 83kts
09-Oct-18 10:34 33.686621 -117.861912 205 152ft 73kts
09-Oct-18 10:35 33.675750 -117.869170 266 59ft 11kts
09-Oct-18 10:36 33.675912 -117.869755 280 59ft 0kts
09-Oct-18 10:37 33.675912 -117.869755 280 59ft 0kts
09-Oct-18 10:38 33.675826 -117.870719 310 59ft 6kts
09-Oct-18 10:39 33.675882 -117.871552 222 59ft 0kts
09-Oct-18 10:40 33.675882 -117.871552 222 59ft 0kts

Navigation Log

Ident Type
Flight plan parsing failed, navigation log unavailable